createdAt,value
2022-09-12T00:02:16.605Z,100027.91
2022-09-12T00:04:48.745Z,100034.95
2022-09-12T00:07:20.935Z,100033.28
2022-09-12T00:09:52.933Z,100029.88
2022-09-12T00:12:24.954Z,100036.03
2022-09-12T00:14:56.990Z,100036.92
2022-09-12T00:17:29.250Z,100027.36
2022-09-12T00:20:01.533Z,100028.27
2022-09-12T00:22:33.973Z,100023.08
2022-09-12T00:25:09.732Z,100026.63
2022-09-12T00:27:42.099Z,100030.17
2022-09-12T00:30:14.987Z,100025.00
2022-09-12T00:32:47.080Z,100035.48
2022-09-12T00:35:19.146Z,100035.58
2022-09-12T00:37:51.279Z,100026.95
2022-09-12T00:40:23.359Z,100028.77
2022-09-12T00:42:55.567Z,100027.09
2022-09-12T00:45:31.184Z,100029.76
2022-09-12T00:48:05.697Z,100028.96
2022-09-12T00:50:37.958Z,100030.74
2022-09-12T00:53:10.999Z,100029.95
2022-09-12T00:55:45.932Z,100026.59
2022-09-12T00:58:23.694Z,100034.50
2022-09-12T01:00:56.507Z,100033.70
2022-09-12T01:03:31.367Z,100039.00
2022-09-12T01:06:09.042Z,100029.58
2022-09-12T01:08:42.247Z,100033.99
2022-09-12T01:11:15.725Z,100043.63
2022-09-12T01:13:49.277Z,100041.06
2022-09-12T01:16:21.369Z,100040.25
2022-09-12T01:19:09.297Z,100049.03
2022-09-12T01:21:55.642Z,100041.30
2022-09-12T01:24:57.367Z,100044.82
2022-09-12T01:27:50.079Z,100046.66
2022-09-12T01:30:43.170Z,100050.22
2022-09-12T01:33:53.162Z,100042.48
2022-09-12T01:36:42.652Z,100047.80
2022-09-12T01:39:23.327Z,100051.28
2022-09-12T01:42:03.668Z,100049.56
2022-09-12T01:44:42.537Z,100049.63
2022-09-12T01:47:21.675Z,100055.72
2022-09-12T01:50:02.131Z,100056.59
2022-09-12T01:52:39.542Z,100059.20
2022-09-12T01:55:18.095Z,100060.97
2022-09-12T01:57:56.281Z,100068.78
2022-09-12T02:00:28.938Z,100053.15
2022-09-12T02:03:06.325Z,100060.97
2022-09-12T02:05:42.483Z,100056.63
2022-09-12T02:08:20.189Z,100059.23
2022-09-12T02:10:57.789Z,100054.91
2022-09-12T02:13:36.990Z,100057.48
2022-09-12T02:16:13.360Z,100056.63
2022-09-12T02:18:48.799Z,100055.72
2022-09-12T02:21:24.073Z,100060.08
2022-09-12T02:24:00.104Z,100062.69
2022-09-12T02:26:38.168Z,100064.41
2022-09-12T02:29:10.152Z,100067.90
2022-09-12T02:31:46.668Z,100075.71
2022-09-12T02:34:33.895Z,100073.98
2022-09-12T02:37:14.559Z,100073.98
2022-09-12T02:39:47.216Z,100067.90
2022-09-12T02:42:19.249Z,100073.95
2022-09-12T02:44:52.647Z,100071.38
2022-09-12T02:47:30.150Z,100074.83
2022-09-12T02:50:02.714Z,100076.59
2022-09-12T02:52:35.345Z,100086.98
2022-09-12T02:55:11.312Z,100076.56
2022-09-12T02:57:44.904Z,100075.72
2022-09-12T03:00:18.954Z,100078.32
2022-09-12T03:03:19.513Z,100070.50
2022-09-12T03:05:58.736Z,100077.47
2022-09-12T03:08:58.742Z,100083.53
2022-09-12T03:11:52.326Z,100089.62
2022-09-12T03:14:42.269Z,100085.28
2022-09-12T03:17:20.534Z,100092.23
2022-09-12T03:20:00.898Z,100096.55
2022-09-12T03:22:36.453Z,100099.16
2022-09-12T03:25:17.537Z,100095.64
2022-09-12T03:27:57.303Z,100097.37
2022-09-12T03:30:30.010Z,100099.94
2022-09-12T03:33:01.967Z,100108.60
2022-09-12T03:35:34.074Z,100112.93
2022-09-12T03:38:08.246Z,100124.20
2022-09-12T03:40:41.058Z,100114.63
2022-09-12T03:43:13.595Z,100121.56
2022-09-12T03:45:45.645Z,100117.27
2022-09-12T03:48:17.513Z,100116.42
2022-09-12T03:50:49.833Z,100119.91
2022-09-12T03:53:21.854Z,100122.51
2022-09-12T03:55:54.118Z,100123.35
2022-09-12T03:58:26.656Z,100131.17
2022-09-12T04:00:59.143Z,100129.45
2022-09-12T04:03:31.143Z,100124.23
2022-09-12T04:06:03.379Z,100126.84
2022-09-12T04:08:35.651Z,100131.17
2022-09-12T04:11:10.032Z,100129.45
2022-09-12T04:13:41.212Z,100117.30
2022-09-12T04:16:15.140Z,100131.20
2022-09-12T04:18:47.939Z,100140.78
2022-09-12T04:21:23.115Z,100138.20
2022-09-12T04:23:55.211Z,100138.17
2022-09-12T04:26:30.078Z,100149.44
2022-09-12T04:29:02.145Z,100145.98
2022-09-12T04:31:37.354Z,100142.50
2022-09-12T04:34:09.858Z,100138.20
2022-09-12T04:36:42.796Z,100136.48
2022-09-12T04:39:14.989Z,100139.96
2022-09-12T04:41:47.083Z,100140.84
2022-09-12T04:44:19.171Z,100152.98
2022-09-12T04:46:52.638Z,100150.38
2022-09-12T04:49:24.733Z,100147.78
2022-09-12T04:51:57.024Z,100149.50
2022-09-12T04:54:29.017Z,100147.75
2022-09-12T04:57:01.155Z,100143.41
2022-09-12T04:59:33.276Z,100152.11
2022-09-12T05:02:06.219Z,100145.17
2022-09-12T05:04:38.185Z,100146.02
2022-09-12T05:07:10.271Z,100152.98
2022-09-12T05:09:42.311Z,100155.56
2022-09-12T05:12:16.584Z,100157.28
2022-09-12T05:14:48.562Z,100165.14
2022-09-12T05:17:20.603Z,100158.16
2022-09-12T05:19:52.773Z,100164.22
2022-09-12T05:22:25.381Z,100165.07
2022-09-12T05:24:57.344Z,100163.34
2022-09-12T05:27:29.650Z,100172.01
2022-09-12T05:30:01.633Z,100176.37
2022-09-12T05:32:35.758Z,100176.37
2022-09-12T05:35:08.513Z,100179.86
2022-09-12T05:37:40.671Z,100178.98
2022-09-12T05:40:16.402Z,100178.95
2022-09-12T05:42:48.565Z,100179.80
2022-09-12T05:45:21.385Z,100180.64
2022-09-12T05:47:54.462Z,100184.09
2022-09-12T05:50:26.372Z,100184.95
2022-09-12T05:52:59.766Z,100188.40
2022-09-12T05:55:33.397Z,100190.09
2022-09-12T05:58:05.541Z,100188.34
2022-09-12T06:00:37.628Z,100187.42
2022-09-12T06:03:09.968Z,100182.15
2022-09-12T06:05:42.103Z,100182.97
2022-09-12T06:08:16.508Z,100178.59
2022-09-12T06:10:49.760Z,100188.08
2022-09-12T06:13:21.852Z,100178.53
2022-09-12T06:15:54.409Z,100179.37
2022-09-12T06:18:26.645Z,100182.83
2022-09-12T06:20:58.625Z,100185.40
2022-09-12T06:23:30.909Z,100180.16
2022-09-12T06:26:04.826Z,100179.23
2022-09-12T06:28:38.939Z,100186.17
2022-09-12T06:31:13.585Z,100191.36
2022-09-12T06:33:48.086Z,100186.11
2022-09-12T06:36:22.509Z,100195.59
2022-09-12T06:39:01.530Z,100191.18
2022-09-12T06:41:34.796Z,100192.83
2022-09-12T06:44:07.439Z,100197.13
2022-09-12T06:46:39.908Z,100194.45
2022-09-12T06:49:13.277Z,100185.74
2022-09-12T06:51:45.373Z,100189.96
2022-09-12T06:54:20.172Z,100186.39
2022-09-12T06:56:52.141Z,100191.53
2022-09-12T06:59:24.101Z,100191.36
2022-09-12T07:01:56.819Z,100195.58
2022-09-12T07:04:29.348Z,100200.72
2022-09-12T07:07:01.423Z,100200.64
2022-09-12T07:09:33.683Z,100197.14
2022-09-12T07:12:06.408Z,100198.02
2022-09-12T07:14:38.564Z,100199.66
2022-09-12T07:17:10.660Z,100205.60
2022-09-12T07:19:43.717Z,100202.86
2022-09-12T07:22:16.282Z,100203.53
2022-09-12T07:24:48.643Z,100217.42
2022-09-12T07:27:20.574Z,100207.77
2022-09-12T07:29:52.814Z,100211.13
2022-09-12T07:32:25.046Z,100221.45
2022-09-12T07:34:57.213Z,100226.63
2022-09-12T07:37:31.229Z,100230.82
2022-09-12T07:40:03.850Z,100231.61
2022-09-12T07:42:36.001Z,100235.91
2022-09-12T07:45:10.512Z,100238.56
2022-09-12T07:47:45.084Z,100237.77
2022-09-12T07:50:17.908Z,100239.59
2022-09-12T07:52:50.642Z,100249.25
2022-09-12T07:55:22.663Z,100242.30
2022-09-12T07:57:55.653Z,100245.75
2022-09-12T08:00:36.143Z,100243.97
2022-09-12T08:03:09.098Z,100243.19
2022-09-12T08:05:41.093Z,100247.56
2022-09-12T08:08:15.898Z,100249.25
2022-09-12T08:10:48.226Z,100253.36
2022-09-12T08:13:20.330Z,100254.91
2022-09-12T08:15:52.521Z,100258.34
2022-09-12T08:18:25.071Z,100252.19
2022-09-12T08:21:00.934Z,100257.42
2022-09-12T08:23:33.403Z,100260.95
2022-09-12T08:26:07.757Z,100260.08
2022-09-12T08:28:41.264Z,100260.08
2022-09-12T08:31:16.241Z,100260.02
2022-09-12T08:33:48.435Z,100256.52
2022-09-12T08:36:23.358Z,100262.59
2022-09-12T08:38:59.971Z,100263.44
2022-09-12T08:41:36.527Z,100259.00
2022-09-12T08:44:45.959Z,100262.41
2022-09-12T08:47:27.167Z,100260.53
2022-09-12T08:50:07.786Z,100259.54
2022-09-12T08:52:45.155Z,100253.36
2022-09-12T08:55:41.526Z,100258.45
2022-09-12T08:58:17.977Z,100264.41
2022-09-12T09:00:59.672Z,100266.95
2022-09-12T09:04:08.801Z,100266.89
2022-09-12T09:06:59.528Z,100270.34
2022-09-12T09:09:44.138Z,100265.96
2022-09-12T09:12:22.814Z,100264.08
2022-09-12T09:15:21.618Z,100259.61
2022-09-12T09:18:00.525Z,100263.84
2022-09-12T09:20:38.439Z,100262.06
2022-09-12T09:23:15.589Z,100270.70
2022-09-12T09:25:54.013Z,100263.63
2022-09-12T09:28:33.096Z,100269.64
2022-09-12T09:31:07.112Z,100273.03
2022-09-12T09:33:40.192Z,100265.07
2022-09-12T09:36:22.563Z,100273.66
2022-09-12T09:39:03.322Z,100265.67
2022-09-12T09:41:47.263Z,100270.68
2022-09-12T09:44:19.878Z,100274.86
2022-09-12T09:46:55.429Z,100272.17
2022-09-12T09:49:28.569Z,100282.70
2022-09-12T09:52:02.319Z,100275.75
2022-09-12T09:54:36.290Z,100277.52
2022-09-12T09:57:41.272Z,100284.55
2022-09-12T10:00:30.662Z,100280.16
2022-09-12T10:03:23.486Z,100289.62
2022-09-12T10:05:58.381Z,100286.80
2022-09-12T10:08:32.724Z,100290.03
2022-09-12T10:11:07.570Z,100288.19
2022-09-12T10:13:44.694Z,100295.25
2022-09-12T10:16:25.398Z,100296.05
2022-09-12T10:18:59.462Z,100296.05
2022-09-12T10:21:35.923Z,100304.91
2022-09-12T10:24:20.571Z,100301.53
2022-09-12T10:26:57.212Z,100305.02
2022-09-12T10:29:33.526Z,100307.66
2022-09-12T10:32:08.953Z,100306.75
2022-09-12T10:34:46.204Z,100309.25
2022-09-12T10:37:26.258Z,100302.23
2022-09-12T10:40:00.505Z,100311.70
2022-09-12T10:42:55.525Z,100311.51
2022-09-12T10:45:31.024Z,100313.06
2022-09-12T10:48:07.793Z,100313.77
2022-09-12T10:50:42.959Z,100316.24
2022-09-12T10:53:22.356Z,100317.02
2022-09-12T10:56:09.066Z,100323.03
2022-09-12T10:58:58.876Z,100319.47
2022-09-12T11:01:44.448Z,100317.63
2022-09-12T11:04:27.708Z,100319.27
2022-09-12T11:07:21.204Z,100321.89
2022-09-12T11:10:01.409Z,100323.64
2022-09-12T11:12:42.572Z,100325.18
2022-09-12T11:15:35.328Z,100317.98
2022-09-12T11:18:17.258Z,100324.69
2022-09-12T11:21:03.582Z,100322.06
2022-09-12T11:24:00.327Z,100315.81
2022-09-12T11:26:51.652Z,100326.28
2022-09-12T11:29:38.194Z,100314.77
2022-09-12T11:32:42.573Z,100317.31
2022-09-12T11:35:25.964Z,100323.39
2022-09-12T11:38:41.189Z,100329.34
2022-09-12T11:41:21.335Z,100326.72
2022-09-12T11:43:58.923Z,100326.72
2022-09-12T11:46:38.285Z,100329.34
2022-09-12T11:49:22.151Z,100320.77
2022-09-12T11:51:58.285Z,100323.39
2022-09-12T11:54:35.117Z,100330.38
2022-09-12T11:57:15.621Z,100330.44
2022-09-12T11:59:53.157Z,100335.77
2022-09-12T12:02:29.607Z,100333.25
2022-09-12T12:05:20.786Z,100326.17
2022-09-12T12:07:56.918Z,100331.13
2022-09-12T12:10:36.911Z,100325.80
2022-09-12T12:13:18.331Z,100323.12
2022-09-12T12:15:52.540Z,100324.09
2022-09-12T12:18:27.849Z,100323.33
2022-09-12T12:21:29.919Z,100333.06
2022-09-12T12:24:19.299Z,100335.73
2022-09-12T12:27:02.986Z,100336.59
2022-09-12T12:29:47.996Z,100327.73
2022-09-12T12:32:25.486Z,100330.98
2022-09-12T12:35:38.614Z,100336.92
2022-09-12T12:38:30.878Z,100337.77
2022-09-12T12:41:45.260Z,100337.74
2022-09-12T12:44:49.190Z,100336.84
2022-09-12T12:47:24.525Z,100344.71
2022-09-12T12:50:02.904Z,100342.03
2022-09-12T12:52:46.243Z,100341.21
2022-09-12T12:55:23.088Z,100346.57
2022-09-12T12:57:57.318Z,100337.88
2022-09-12T13:00:33.208Z,100340.59
2022-09-12T13:03:20.997Z,100341.42
2022-09-12T13:05:57.957Z,100340.59
2022-09-12T13:08:33.995Z,100347.55
2022-09-12T13:11:13.984Z,100348.45
2022-09-12T13:13:59.923Z,100347.55
2022-09-12T13:16:40.490Z,100346.66
2022-09-12T13:19:21.549Z,100349.22
2022-09-12T13:22:01.152Z,100341.33
2022-09-12T13:24:33.348Z,100349.08
2022-09-12T13:27:16.951Z,100347.22
2022-09-12T13:29:49.527Z,100344.52
2022-09-12T13:32:21.571Z,100347.91
2022-09-12T13:35:09.905Z,100351.21
2022-09-12T13:37:56.680Z,100343.99
2022-09-12T13:40:37.232Z,100348.14
2022-09-12T13:43:17.009Z,100342.80
2022-09-12T13:45:51.002Z,100348.81
2022-09-12T13:48:24.344Z,100344.46
2022-09-12T13:51:01.143Z,100350.62
2022-09-12T13:53:43.212Z,100343.48
2022-09-12T13:56:21.716Z,100340.58
2022-09-12T13:58:58.606Z,100343.88
2022-09-12T14:01:42.931Z,100343.61
2022-09-12T14:04:35.810Z,100344.34
2022-09-12T14:07:15.482Z,100345.97
2022-09-12T14:09:55.688Z,100344.09
2022-09-12T14:12:34.346Z,100342.98
2022-09-12T14:15:12.455Z,100343.64
2022-09-12T14:17:52.966Z,100343.42
2022-09-12T14:20:26.411Z,100343.30
2022-09-12T14:23:00.727Z,100342.32
2022-09-12T14:25:42.534Z,100342.06
2022-09-12T14:28:23.344Z,100340.94
2022-09-12T14:31:05.163Z,100346.78
2022-09-12T14:33:50.199Z,100340.45
2022-09-12T14:36:27.867Z,100337.66
2022-09-12T14:39:03.552Z,100342.81
2022-09-12T14:41:39.300Z,100348.02
2022-09-12T14:44:19.326Z,100339.21
2022-09-12T14:46:52.602Z,100340.12
2022-09-12T14:49:31.826Z,100345.38
2022-09-12T14:52:06.250Z,100345.38
2022-09-12T14:54:44.621Z,100343.69
2022-09-12T14:57:35.682Z,100337.45
2022-09-12T15:00:25.261Z,100347.10
2022-09-12T15:03:17.399Z,100340.09
2022-09-12T15:05:52.933Z,100341.06
2022-09-12T15:08:25.730Z,100339.38
2022-09-12T15:10:58.279Z,100343.83
2022-09-12T15:13:39.853Z,100349.09
2022-09-12T15:16:16.039Z,100343.89
2022-09-12T15:18:48.232Z,100349.16
2022-09-12T15:21:22.632Z,100349.22
2022-09-12T15:23:55.531Z,100345.84
2022-09-12T15:26:31.812Z,100349.37
2022-09-12T15:29:04.170Z,100349.41
2022-09-12T15:31:39.637Z,100354.80
2022-09-12T15:34:12.594Z,100351.39
2022-09-12T15:36:44.631Z,100354.24
2022-09-12T15:39:16.728Z,100356.13
2022-09-12T15:41:50.794Z,100361.53
2022-09-12T15:44:23.932Z,100355.56
2022-09-12T15:46:56.000Z,100360.91
2022-09-12T15:49:28.478Z,100364.45
2022-09-12T15:52:01.088Z,100360.16
2022-09-12T15:54:33.175Z,100357.62
2022-09-12T15:57:05.330Z,100356.87
2022-09-12T15:59:37.993Z,100358.74
2022-09-12T16:02:13.149Z,100357.98
2022-09-12T16:04:46.705Z,100356.36
2022-09-12T16:07:18.971Z,100359.05
2022-09-12T16:09:51.254Z,100367.02
2022-09-12T16:12:23.320Z,100364.45
2022-09-12T16:14:55.277Z,100361.98
2022-09-12T16:17:27.750Z,100363.84
2022-09-12T16:19:59.713Z,100362.21
2022-09-12T16:22:32.122Z,100357.98
2022-09-12T16:25:04.360Z,100366.00
2022-09-12T16:27:37.796Z,100359.11
2022-09-12T16:30:15.603Z,100366.23
2022-09-12T16:32:47.723Z,100355.87
2022-09-12T16:35:19.907Z,100356.86
2022-09-12T16:37:52.114Z,100352.57
2022-09-12T16:40:25.177Z,100356.19
2022-09-12T16:42:57.523Z,100363.30
2022-09-12T16:45:29.747Z,100356.44
2022-09-12T16:48:02.065Z,100356.52
2022-09-12T16:50:34.944Z,100360.11
2022-09-12T16:53:07.577Z,100351.44
2022-09-12T16:55:39.649Z,100355.02
2022-09-12T16:58:12.073Z,100363.85
2022-09-12T17:00:44.749Z,100357.84
2022-09-12T17:03:17.676Z,100370.08
2022-09-12T17:05:58.342Z,100361.44
2022-09-12T17:08:30.952Z,100358.05
2022-09-12T17:11:08.549Z,100362.48
2022-09-12T17:14:03.403Z,100366.95
2022-09-12T17:16:33.911Z,100369.71
2022-09-12T17:19:09.111Z,100376.77
2022-09-12T17:21:41.523Z,100376.84
2022-09-12T17:24:15.061Z,100383.88
2022-09-12T17:26:47.891Z,100380.47
2022-09-12T17:29:21.150Z,100376.14
2022-09-12T17:31:55.454Z,100380.59
2022-09-12T17:34:27.591Z,100377.17
2022-09-12T17:36:59.841Z,100377.23
2022-09-12T17:39:32.685Z,100380.75
2022-09-12T17:42:04.706Z,100372.87
2022-09-12T17:44:37.845Z,100381.64
2022-09-12T17:47:11.198Z,100374.73
2022-09-12T17:49:43.840Z,100375.63
2022-09-12T17:52:16.444Z,100377.42
2022-09-12T17:54:48.953Z,100375.70
2022-09-12T17:57:21.366Z,100377.53
2022-09-12T17:59:54.174Z,100381.05
2022-09-12T18:02:30.284Z,100380.17
2022-09-12T18:05:06.069Z,100365.39
2022-09-12T18:07:43.457Z,100375.95
2022-09-12T18:10:19.285Z,100372.61
2022-09-12T18:12:51.519Z,100373.53
2022-09-12T18:15:23.755Z,100378.82
2022-09-12T18:17:56.100Z,100377.99
2022-09-12T18:20:28.644Z,100380.69
2022-09-12T18:23:01.405Z,100381.60
2022-09-12T18:25:33.934Z,100376.36
2022-09-12T18:28:09.253Z,100373.81
2022-09-12T18:30:42.962Z,100381.77
2022-09-12T18:33:17.991Z,100381.79
2022-09-12T18:35:53.200Z,100384.52
2022-09-12T18:38:25.617Z,100374.95
2022-09-12T18:41:06.650Z,100383.75
2022-09-12T18:43:39.189Z,100383.80
2022-09-12T18:46:14.661Z,100387.34
2022-09-12T18:48:48.512Z,100390.05
2022-09-12T18:51:24.376Z,100382.27
2022-09-12T18:53:58.261Z,100377.09
2022-09-12T18:56:33.484Z,100377.98
2022-09-12T18:59:07.255Z,100378.08
2022-09-12T19:01:41.567Z,100377.31
2022-09-12T19:04:13.428Z,100379.16
2022-09-12T19:06:48.059Z,100387.97
2022-09-12T19:09:21.911Z,100378.44
2022-09-12T19:11:53.280Z,100383.72
2022-09-12T19:14:27.788Z,100386.41
2022-09-12T19:17:00.974Z,100403.91
2022-09-12T19:19:34.977Z,100394.39
2022-09-12T19:22:09.292Z,100400.56
2022-09-12T19:24:41.688Z,100401.55
2022-09-12T19:27:14.587Z,100403.29
2022-09-12T19:29:46.866Z,100397.20
2022-09-12T19:32:19.158Z,100389.35
2022-09-12T19:34:51.392Z,100385.85
2022-09-12T19:37:23.525Z,100392.03
2022-09-12T19:39:55.682Z,100380.78
2022-09-12T19:42:28.404Z,100380.04
2022-09-12T19:45:00.614Z,100371.41
2022-09-12T19:47:32.924Z,100371.52
2022-09-12T19:50:05.843Z,100380.36
2022-09-12T19:52:38.347Z,100377.00
2022-09-12T19:55:11.903Z,100372.77
2022-09-12T19:57:44.682Z,100375.48
2022-09-12T20:00:20.229Z,100370.35
2022-09-12T20:02:56.126Z,100363.48
2022-09-12T20:05:28.727Z,100363.53
2022-09-12T20:08:01.992Z,100364.47
2022-09-12T20:10:34.143Z,100361.12
2022-09-12T20:13:06.903Z,100354.27
2022-09-12T20:15:38.999Z,100353.62
2022-09-12T20:18:11.237Z,100359.05
2022-09-12T20:20:43.298Z,100359.23
2022-09-12T20:23:18.283Z,100364.63
2022-09-12T20:25:50.472Z,100371.76
2022-09-12T20:28:22.985Z,100368.43
2022-09-12T20:30:55.230Z,100369.40
2022-09-12T20:33:27.474Z,100374.70
2022-09-12T20:36:06.456Z,100370.41
2022-09-12T20:38:39.702Z,100370.56
2022-09-12T20:41:15.262Z,100367.19
2022-09-12T20:43:50.122Z,100362.03
2022-09-12T20:46:23.008Z,100368.14
2022-09-12T20:48:56.344Z,100355.13
2022-09-12T20:51:30.447Z,100369.11
2022-09-12T20:54:05.044Z,100355.28
2022-09-12T20:56:38.241Z,100359.70
2022-09-12T20:59:11.472Z,100355.43
2022-09-12T21:01:44.427Z,100364.14
2022-09-12T21:04:16.740Z,100353.77
2022-09-12T21:06:48.838Z,100362.59
2022-09-12T21:09:20.816Z,100354.02
2022-09-12T21:11:52.773Z,100364.56
2022-09-12T21:14:24.995Z,100354.19
2022-09-12T21:16:56.992Z,100364.69
2022-09-12T21:19:29.276Z,100362.12
2022-09-12T21:22:01.519Z,100363.91
2022-09-12T21:24:33.797Z,100369.25
2022-09-12T21:27:06.108Z,100366.77
2022-09-12T21:29:38.759Z,100366.88
2022-09-12T21:32:13.999Z,100364.38
2022-09-12T21:34:47.222Z,100368.83
2022-09-12T21:37:19.362Z,100366.27
2022-09-12T21:39:51.527Z,100365.41
2022-09-12T21:42:23.663Z,100360.20
2022-09-12T21:44:56.123Z,100366.30
2022-09-12T21:47:28.161Z,100361.96
2022-09-12T21:50:00.430Z,100356.80
2022-09-12T21:52:32.642Z,100354.27
2022-09-12T21:55:06.136Z,100354.32
2022-09-12T21:57:38.573Z,100345.67
2022-09-12T22:00:16.723Z,100347.43
2022-09-12T22:02:52.827Z,100344.00
2022-09-12T22:05:24.868Z,100349.23
2022-09-12T22:07:57.063Z,100353.61
2022-09-12T22:10:29.715Z,100347.56
2022-09-12T22:13:01.813Z,100352.83
2022-09-12T22:15:40.539Z,100348.52
2022-09-12T22:18:14.784Z,100351.16
2022-09-12T22:20:46.974Z,100347.73
2022-09-12T22:23:37.172Z,100350.33
2022-09-12T22:26:09.528Z,100351.27
2022-09-12T22:28:41.725Z,100346.09
2022-09-12T22:31:15.440Z,100347.86
2022-09-12T22:33:48.240Z,100344.42
2022-09-12T22:36:20.235Z,100343.62
2022-09-12T22:38:52.173Z,100346.23
2022-09-12T22:41:24.527Z,100336.72
2022-09-12T22:43:57.443Z,100341.04
2022-09-12T22:46:30.414Z,100347.12
2022-09-12T22:49:02.547Z,100348.04
2022-09-12T22:51:35.507Z,100343.69
2022-09-12T22:54:08.139Z,100337.70
2022-09-12T22:56:40.269Z,100339.43
2022-09-12T22:59:12.271Z,100341.19
2022-09-12T23:01:44.372Z,100342.95
2022-09-12T23:04:16.378Z,100336.02
2022-09-12T23:06:49.433Z,100339.53
2022-09-12T23:09:21.407Z,100345.61
2022-09-12T23:11:53.564Z,100347.38
2022-09-12T23:14:25.569Z,100340.48
2022-09-12T23:16:57.522Z,100350.90
2022-09-12T23:19:29.510Z,100341.36
2022-09-12T23:22:01.615Z,100339.66
2022-09-12T23:24:33.654Z,100333.58
2022-09-12T23:27:06.286Z,100331.00
2022-09-12T23:29:38.549Z,100329.25
2022-09-12T23:32:10.744Z,100324.97
2022-09-12T23:34:42.731Z,100329.29
2022-09-12T23:37:16.081Z,100319.80
2022-09-12T23:39:48.064Z,100324.16
2022-09-12T23:42:20.422Z,100318.08
2022-09-12T23:44:52.626Z,100311.16
2022-09-12T23:47:24.642Z,100319.83
2022-09-12T23:49:56.853Z,100318.09
2022-09-12T23:52:29.897Z,100323.30
2022-09-12T23:55:01.913Z,100320.73
2022-09-12T23:57:33.993Z,100319.88
